KMHE

Mitchell Municipal Airport

Mitchell, South Dakota, USA
METAR KMHE 182153Z AUTO 07011KT 10SM OVC020 23/19 A2994 RMK AO2 SLP132 T02280189
Observed Flight Rules
Jun-18 @ 21:53 UTC (40 minutes ago) Marginal Visual Flight Rules
Wind Visibility Clouds
70° at 11 knots 10 miles
  • Overcast at 2,000' AGL
Temperatures Readings
Current 23°C / 73°F
Dewpoint 19°C / 66°F
Humidity 78%
Altimeter 29.94" Hg
Pressure 1013.2 hPa
Elevation 397
METAR KMHE 182153Z AUTO 07011KT 10SM OVC020 23/19 A2994 RMK AO2 SLP132 T02280189
Observed Flight Rules
Jun-18 @ 21:53 UTC
(40 minutes ago)
MVFR
Wind Visibility
70° at 11 knots 10 miles
Clouds
  • Overcast at 2,000' AGL
Temperature Dewpoint
23°C / 73°F 19°C / 66°F
Humidity Altimeter Pressure
78% 29.94" Hg 1013.2 hPa